Time;durP1;ratioP1;P1;durP2;ratioP2;P2;SDS_P1;SDS_P2;PMS_P1;PMS_P2;Temp;Humidity;BMP_temperature;BMP_pressure;BME280_temperature;BME280_humidity;BME280_pressure;Samples;Min_cycle;Max_cycle;Signal;HPM_P1;HPM_P2
2022/05/29 00:00:10;;;;;;;7.90;2.47;;;11.80;99.90;;;;;;5088964;28;20339;-73
2022/05/29 00:02:35;;;;;;;4.83;1.80;;;11.80;99.90;;;;;;5102390;28;20206;-73
2022/05/29 00:05:01;;;;;;;5.33;2.03;;;11.80;99.90;;;;;;5075887;28;20166;-73
2022/05/29 00:07:26;;;;;;;6.37;2.47;;;11.70;99.90;;;;;;5076379;28;20544;-74
2022/05/29 00:09:52;;;;;;;10.77;2.43;;;11.70;99.90;;;;;;5083622;28;20281;-73
2022/05/29 00:12:20;;;;;;;8.30;2.10;;;11.70;99.90;;;;;;5075519;28;20203;-73
2022/05/29 00:14:47;;;;;;;6.00;2.07;;;11.70;99.90;;;;;;5070824;28;20552;-73
2022/05/29 00:17:14;;;;;;;6.77;2.10;;;11.70;99.90;;;;;;5080075;28;20162;-73
2022/05/29 00:19:40;;;;;;;9.17;3.00;;;11.70;99.90;;;;;;5094684;28;20262;-74
2022/05/29 00:22:05;;;;;;;8.60;2.37;;;11.70;99.90;;;;;;5105324;28;20241;-74
2022/05/29 00:24:31;;;;;;;8.10;2.40;;;11.70;99.90;;;;;;5085669;28;20193;-73
2022/05/29 00:26:57;;;;;;;8.30;2.43;;;11.70;99.90;;;;;;5075512;28;20202;-73
2022/05/29 00:29:23;;;;;;;8.43;2.43;;;11.70;99.90;;;;;;5092962;28;20202;-73
2022/05/29 00:31:48;;;;;;;9.57;2.57;;;11.70;99.90;;;;;;5102492;28;20190;-73
2022/05/29 00:34:14;;;;;;;6.97;1.93;;;11.60;99.90;;;;;;5082944;28;20197;-73
2022/05/29 00:36:43;;;;;;;5.03;1.97;;;11.60;99.90;;;;;;5095558;28;20201;-73
2022/05/29 00:39:11;;;;;;;5.23;2.13;;;11.60;99.90;;;;;;5086682;28;20559;-74
2022/05/29 00:41:39;;;;;;;9.80;2.53;;;11.60;99.90;;;;;;5097522;28;20271;-73
2022/05/29 00:44:19;;;;;;;6.50;1.80;;;11.50;99.90;;;;;;5107751;28;20640;-73
2022/05/29 00:46:55;;;;;;;5.03;2.20;;;11.50;99.90;;;;;;5105528;28;20527;-73
2022/05/29 00:49:24;;;;;;;7.23;2.30;;;11.50;99.90;;;;;;5086174;28;20201;-74
2022/05/29 00:52:08;;;;;;;4.90;1.87;;;11.50;99.90;;;;;;5100910;28;20613;-73
2022/05/29 00:54:40;;;;;;;6.30;1.97;;;11.50;99.90;;;;;;5103129;28;20849;-74
2022/05/29 00:57:06;;;;;;;4.63;2.20;;;11.50;99.90;;;;;;5080423;28;20711;-75
2022/05/29 00:59:33;;;;;;;8.03;2.67;;;11.50;99.90;;;;;;5093696;28;20233;-73
2022/05/29 01:02:01;;;;;;;6.77;2.03;;;11.40;99.90;;;;;;5087035;28;20181;-73
2022/05/29 01:04:27;;;;;;;5.77;2.00;;;11.40;99.90;;;;;;5105078;28;20633;-74
2022/05/29 01:06:53;;;;;;;10.80;2.23;;;11.40;99.90;;;;;;5108655;28;20725;-73
2022/05/29 01:09:19;;;;;;;9.23;2.53;;;11.40;99.90;;;;;;5100471;28;20198;-74
2022/05/29 01:11:58;;;;;;;8.93;2.10;;;11.40;99.90;;;;;;5075817;28;20242;-73
2022/05/29 01:14:54;;;;;;;7.73;2.10;;;11.40;99.90;;;;;;5104003;28;20346;-73
2022/05/29 01:17:32;;;;;;;6.53;2.43;;;11.40;99.90;;;;;;5074375;28;20212;-73
2022/05/29 01:20:35;;;;;;;5.17;2.03;;;11.50;99.90;;;;;;5085659;28;20170;-73
2022/05/29 01:23:25;;;;;;;7.07;2.43;;;11.50;99.90;;;;;;5111151;22;20230;-77
2022/05/29 01:26:04;;;;;;;4.23;2.30;;;11.40;99.90;;;;;;5111540;28;20260;-77
2022/05/29 01:28:43;;;;;;;4.90;1.87;;;11.30;99.90;;;;;;5110586;28;20206;-77
2022/05/29 01:31:50;;;;;;;6.53;1.97;;;11.40;99.90;;;;;;5110818;28;20200;-77
2022/05/29 01:34:33;;;;;;;6.90;1.97;;;11.30;99.90;;;;;;5090503;28;20197;-77
2022/05/29 01:37:19;;;;;;;8.17;2.23;;;11.30;99.90;;;;;;5090629;28;20198;-77
2022/05/29 01:39:54;;;;;;;5.23;1.80;;;11.30;99.90;;;;;;5088995;28;20202;-77
2022/05/29 01:42:29;;;;;;;8.63;2.33;;;11.20;99.90;;;;;;5084386;28;20232;-77
2022/05/29 01:45:05;;;;;;;8.47;2.50;;;11.20;99.90;;;;;;5091680;28;20666;-77
2022/05/29 01:47:45;;;;;;;5.63;1.80;;;11.20;99.90;;;;;;5091639;28;20206;-77
2022/05/29 01:50:26;;;;;;;6.97;2.30;;;11.30;99.90;;;;;;5089957;28;20170;-77
2022/05/29 01:53:01;;;;;;;7.57;2.40;;;11.30;99.90;;;;;;5090613;28;20221;-78
2022/05/29 01:55:35;;;;;;;6.53;2.23;;;11.20;99.90;;;;;;5090556;28;20198;-77
2022/05/29 01:58:06;;;;;;;8.07;2.33;;;11.20;99.90;;;;;;5088907;28;20202;-76
2022/05/29 02:00:32;;;;;;;7.17;1.87;;;11.30;99.90;;;;;;5091458;28;20686;-77
2022/05/29 02:03:06;;;;;;;5.63;2.40;;;11.20;99.90;;;;;;5091444;28;20573;-76
2022/05/29 02:06:04;;;;;;;7.73;2.23;;;11.30;99.90;;;;;;5089851;28;20689;-76
2022/05/29 02:08:50;;;;;;;8.00;2.20;;;11.30;99.90;;;;;;5086027;28;20202;-77
2022/05/29 02:11:28;;;;;;;7.03;2.20;;;11.20;99.90;;;;;;5080881;28;20681;-77
2022/05/29 02:13:59;;;;;;;5.00;2.13;;;11.30;99.90;;;;;;5092394;28;20170;-77
2022/05/29 02:16:55;;;;;;;5.60;2.00;;;11.40;99.90;;;;;;5095092;28;20190;-77
2022/05/29 02:19:34;;;;;;;7.17;2.60;;;11.40;99.90;;;;;;5090318;28;20195;-78
2022/05/29 02:22:08;;;;;;;7.87;2.30;;;11.40;99.90;;;;;;5066658;28;20219;-77
2022/05/29 02:24:38;;;;;;;4.50;1.97;;;11.20;99.90;;;;;;5072927;28;20214;-77
2022/05/29 02:27:25;;;;;;;7.27;2.37;;;11.30;99.90;;;;;;5072227;28;20253;-76
2022/05/29 02:29:54;;;;;;;8.40;2.20;;;11.30;99.90;;;;;;5063534;28;20297;-76
2022/05/29 02:32:44;;;;;;;5.87;1.97;;;11.30;99.90;;;;;;5072081;28;20233;-77
2022/05/29 02:35:25;;;;;;;4.57;2.10;;;11.30;99.90;;;;;;5071737;28;20171;-77
2022/05/29 02:37:58;;;;;;;10.93;3.10;;;11.40;99.90;;;;;;5071673;28;20174;-77
2022/05/29 02:40:51;;;;;;;5.63;2.23;;;11.30;99.90;;;;;;5071020;28;20256;-77
2022/05/29 02:43:27;;;;;;;6.27;2.30;;;11.30;99.90;;;;;;5071629;28;20219;-77
2022/05/29 02:46:21;;;;;;;11.70;2.17;;;11.30;99.90;;;;;;5064107;28;20202;-77
2022/05/29 02:49:04;;;;;;;8.27;2.77;;;11.30;99.90;;;;;;5065222;28;20664;-76
2022/05/29 02:51:39;;;;;;;6.60;2.30;;;11.30;99.90;;;;;;5070641;28;20204;-78
2022/05/29 02:54:05;;;;;;;13.10;2.70;;;11.30;99.90;;;;;;5072888;28;20201;-77
2022/05/29 02:56:30;;;;;;;4.33;2.00;;;11.20;99.90;;;;;;5072654;28;20199;-77
2022/05/29 02:58:59;;;;;;;4.27;2.20;;;11.30;99.90;;;;;;5072548;28;20602;-77
2022/05/29 03:01:49;;;;;;;7.30;2.37;;;11.30;99.90;;;;;;5073083;28;20659;-77
2022/05/29 03:04:47;;;;;;;8.93;2.93;;;11.20;99.90;;;;;;5074205;28;20198;-77
2022/05/29 03:07:39;;;;;;;8.27;2.40;;;11.20;99.90;;;;;;5052035;28;20259;-76
2022/05/29 03:10:26;;;;;;;11.70;2.60;;;11.20;99.90;;;;;;5077839;28;20199;-76
2022/05/29 03:13:06;;;;;;;12.23;3.17;;;11.10;99.90;;;;;;5068483;28;20285;-76
2022/05/29 03:15:37;;;;;;;5.70;2.50;;;11.10;99.90;;;;;;5074643;28;20203;-76
2022/05/29 03:18:09;;;;;;;11.43;3.13;;;11.10;99.90;;;;;;5072022;28;20199;-77
2022/05/29 03:20:41;;;;;;;10.10;2.43;;;11.10;99.90;;;;;;5072603;28;20207;-77
2022/05/29 03:23:17;;;;;;;7.43;2.10;;;11.10;99.90;;;;;;5070367;28;20705;-76
2022/05/29 03:25:47;;;;;;;5.47;2.20;;;11.10;99.90;;;;;;5074690;28;20253;-77
2022/05/29 03:28:20;;;;;;;5.93;2.40;;;11.20;99.90;;;;;;5071953;28;20293;-77
2022/05/29 03:30:49;;;;;;;4.17;2.33;;;11.30;99.90;;;;;;5065731;28;20230;-77
2022/05/29 03:33:15;;;;;;;5.30;2.40;;;11.40;99.90;;;;;;5072304;28;20213;-77
2022/05/29 03:35:53;;;;;;;7.03;2.43;;;11.30;99.90;;;;;;5072306;28;20207;-77
2022/05/29 03:38:20;;;;;;;5.00;2.20;;;11.20;99.90;;;;;;5071799;28;20202;-77
2022/05/29 03:40:46;;;;;;;5.57;2.50;;;11.10;99.90;;;;;;5072311;28;20175;-77
2022/05/29 03:43:12;;;;;;;10.70;3.03;;;11.20;99.90;;;;;;5072567;28;20239;-77
2022/05/29 03:45:38;;;;;;;7.80;2.60;;;11.20;99.90;;;;;;5072052;28;20284;-77
2022/05/29 03:48:04;;;;;;;8.13;2.37;;;11.20;99.90;;;;;;5072760;28;20275;-76
2022/05/29 03:50:30;;;;;;;8.80;2.53;;;11.30;99.90;;;;;;5073549;28;20206;-77
2022/05/29 03:52:56;;;;;;;6.80;2.50;;;11.30;99.90;;;;;;5072503;28;20207;-76
2022/05/29 03:55:25;;;;;;;4.10;2.00;;;11.40;99.90;;;;;;5073375;28;20195;-74
2022/05/29 03:57:52;;;;;;;4.73;2.23;;;11.50;99.90;;;;;;5073730;28;20219;-75
2022/05/29 04:00:19;;;;;;;11.93;3.63;;;11.50;99.90;;;;;;5071779;28;20199;-76
2022/05/29 04:02:45;;;;;;;5.00;2.20;;;11.60;99.90;;;;;;5071672;28;20289;-77
2022/05/29 04:05:13;;;;;;;7.17;2.53;;;11.60;99.90;;;;;;5073195;28;20167;-76
2022/05/29 04:13:10;;;;;;;5.37;2.23;;;11.60;99.90;;;;;;5073195;28;20209;-76
2022/05/29 04:15:36;;;;;;;4.87;2.70;;;11.70;99.90;;;;;;5071465;28;20207;-77
2022/05/29 04:18:03;;;;;;;7.77;2.40;;;11.80;99.90;;;;;;5071084;28;20289;-77
2022/05/29 04:20:29;;;;;;;7.50;2.50;;;11.80;99.90;;;;;;5072441;28;20203;-77
2022/05/29 04:22:54;;;;;;;6.73;2.47;;;11.90;99.90;;;;;;5068600;28;20217;-77
2022/05/29 04:25:20;;;;;;;7.17;2.27;;;11.90;99.90;;;;;;5071663;28;20264;-76
2022/05/29 04:27:45;;;;;;;7.20;2.30;;;12.00;99.90;;;;;;5071179;28;20207;-77
2022/05/29 04:30:12;;;;;;;3.73;2.13;;;12.00;99.90;;;;;;5072669;28;20659;-77
2022/05/29 04:35:21;;;;;;;5.37;2.43;;;12.00;99.90;;;;;;5072894;28;20272;-76
2022/05/29 04:37:49;;;;;;;7.93;2.40;;;12.10;99.90;;;;;;5068674;28;20179;-76
2022/05/29 04:40:14;;;;;;;11.27;2.30;;;12.10;99.90;;;;;;5071046;28;20566;-76
2022/05/29 04:42:40;;;;;;;9.07;2.27;;;12.10;99.90;;;;;;5071199;28;20207;-77
2022/05/29 04:45:06;;;;;;;9.73;2.67;;;12.20;99.90;;;;;;5071365;28;20229;-76
2022/05/29 04:47:31;;;;;;;7.40;2.17;;;12.10;99.90;;;;;;5072407;28;20634;-77
2022/05/29 04:49:57;;;;;;;8.77;2.63;;;12.10;99.90;;;;;;5070554;28;20191;-77
2022/05/29 04:52:22;;;;;;;5.83;2.47;;;12.10;99.90;;;;;;5072743;28;20281;-76
2022/05/29 04:54:48;;;;;;;7.30;2.43;;;12.10;99.90;;;;;;5070929;28;20207;-77
2022/05/29 04:57:14;;;;;;;4.67;2.03;;;12.30;99.90;;;;;;5071023;28;20191;-77
2022/05/29 04:59:39;;;;;;;8.73;2.53;;;12.30;99.90;;;;;;5070634;28;20198;-77
2022/05/29 05:02:05;;;;;;;5.70;2.27;;;12.50;99.90;;;;;;5071065;28;20229;-76
2022/05/29 05:04:31;;;;;;;8.10;2.83;;;12.50;99.90;;;;;;5071442;28;20262;-77
2022/05/29 05:06:58;;;;;;;8.60;2.30;;;12.60;99.90;;;;;;5070714;28;20468;-76
2022/05/29 05:09:25;;;;;;;8.80;2.37;;;12.70;99.90;;;;;;5069042;28;20199;-77
2022/05/29 05:11:52;;;;;;;3.93;2.07;;;12.70;99.90;;;;;;5072039;28;20228;-77
2022/05/29 05:14:18;;;;;;;5.40;2.60;;;12.60;99.90;;;;;;5070847;28;20209;-77
2022/05/29 05:16:44;;;;;;;7.20;2.67;;;12.70;99.90;;;;;;5071114;28;20190;-76
2022/05/29 05:19:09;;;;;;;6.17;2.40;;;12.70;99.90;;;;;;5070340;28;20663;-77
2022/05/29 05:21:36;;;;;;;8.57;2.60;;;12.70;99.90;;;;;;5070694;28;20206;-77
2022/05/29 05:24:04;;;;;;;4.90;2.13;;;12.70;99.90;;;;;;5070826;28;20209;-77
2022/05/29 05:26:29;;;;;;;8.63;2.57;;;12.60;99.90;;;;;;5070674;28;20202;-77
2022/05/29 05:28:55;;;;;;;6.53;2.97;;;12.70;99.90;;;;;;5071901;28;20647;-76
2022/05/29 05:31:20;;;;;;;9.40;2.73;;;12.60;99.90;;;;;;5069690;28;20191;-76
2022/05/29 05:33:46;;;;;;;5.53;2.30;;;12.40;99.90;;;;;;5071853;28;20210;-76
2022/05/29 05:36:12;;;;;;;7.17;3.07;;;12.40;99.90;;;;;;5070338;28;20203;-77
2022/05/29 05:38:38;;;;;;;7.40;2.50;;;12.50;99.90;;;;;;5069374;28;20739;-77
2022/05/29 05:41:03;;;;;;;7.20;2.63;;;12.40;99.90;;;;;;5071752;28;20243;-77
2022/05/29 05:43:31;;;;;;;9.67;3.30;;;12.40;99.90;;;;;;5070806;28;20437;-76
2022/05/29 05:45:56;;;;;;;8.80;2.40;;;12.40;99.90;;;;;;5071772;28;20754;-76
2022/05/29 05:48:25;;;;;;;8.23;2.90;;;12.50;99.90;;;;;;5071017;28;20294;-77
2022/05/29 05:50:56;;;;;;;5.37;3.17;;;12.50;99.90;;;;;;5070391;28;20722;-77
2022/05/29 05:53:21;;;;;;;5.57;2.50;;;12.50;99.90;;;;;;5069882;28;20215;-75
2022/05/29 05:55:47;;;;;;;8.10;2.90;;;12.50;99.90;;;;;;5070547;28;20642;-77
2022/05/29 05:58:12;;;;;;;9.67;2.57;;;12.90;99.90;;;;;;5069422;28;20198;-76
2022/05/29 06:00:38;;;;;;;9.77;2.90;;;13.20;99.90;;;;;;5069985;28;20202;-76
2022/05/29 06:03:03;;;;;;;6.67;2.73;;;13.40;99.90;;;;;;5071696;28;20669;-76
2022/05/29 06:05:29;;;;;;;8.45;2.95;;;13.40;99.90;;;;;;5069848;28;20260;-76
2022/05/29 06:07:54;;;;;;;9.97;3.00;;;13.40;99.90;;;;;;5067852;28;20167;-76
2022/05/29 06:10:20;;;;;;;7.18;2.22;;;13.40;99.90;;;;;;5069802;28;20199;-77
2022/05/29 06:12:45;;;;;;;8.37;2.50;;;13.30;99.90;;;;;;5069723;28;20206;-77
2022/05/29 06:15:11;;;;;;;8.10;3.53;;;13.20;99.90;;;;;;5069806;28;20598;-76
2022/05/29 06:17:37;;;;;;;8.20;3.20;;;13.10;99.90;;;;;;5069592;28;20207;-77
2022/05/29 06:20:03;;;;;;;9.13;3.27;;;12.80;99.90;;;;;;5069665;28;20632;-77
2022/05/29 06:22:29;;;;;;;8.55;3.15;;;13.00;99.90;;;;;;5071462;28;20238;-76
2022/05/29 06:24:54;;;;;;;4.57;2.53;;;13.00;99.90;;;;;;5072335;28;20211;-77
2022/05/29 06:27:20;;;;;;;7.50;2.50;;;13.10;99.90;;;;;;5072327;28;20199;-76
2022/05/29 06:29:45;;;;;;;8.13;2.83;;;13.10;99.90;;;;;;5072733;28;20298;-76
2022/05/29 06:32:13;;;;;;;6.70;2.57;;;13.10;99.90;;;;;;5072853;28;20225;-77
2022/05/29 06:34:39;;;;;;;7.43;2.97;;;13.10;99.90;;;;;;5073182;28;20266;-77
2022/05/29 06:37:06;;;;;;;6.87;2.73;;;13.10;99.90;;;;;;5071279;28;20227;-77
2022/05/29 06:39:34;;;;;;;7.57;2.70;;;13.40;99.90;;;;;;5069818;28;20202;-76
2022/05/29 06:42:00;;;;;;;4.43;2.88;;;13.50;99.90;;;;;;5070383;28;20213;-77
2022/05/29 06:44:25;;;;;;;5.50;2.75;;;13.70;99.90;;;;;;5073886;28;20225;-76
2022/05/29 06:46:51;;;;;;;8.20;3.05;;;13.70;99.90;;;;;;5074266;28;20250;-76
2022/05/29 06:49:17;;;;;;;6.53;2.38;;;13.70;99.90;;;;;;5073008;28;20225;-77
2022/05/29 06:51:43;;;;;;;9.85;2.90;;;13.60;99.90;;;;;;5073189;28;20213;-77
2022/05/29 06:54:09;;;;;;;9.82;2.75;;;13.60;99.90;;;;;;5073651;28;20199;-77
2022/05/29 06:56:34;;;;;;;7.20;2.30;;;13.60;99.90;;;;;;5073289;28;20628;-76
2022/05/29 06:59:01;;;;;;;6.25;2.70;;;13.60;99.90;;;;;;5072688;28;20615;-77
2022/05/29 07:07:06;;;;;;;9.57;2.47;;;14.20;99.90;;;;;;5074676;28;20202;-76
2022/05/29 07:09:33;;;;;;;8.25;2.47;;;14.50;99.90;;;;;;5073804;28;20264;-77
2022/05/29 07:12:10;;;;;;;4.25;1.98;;;14.90;99.90;;;;;;5072900;28;20210;-76
2022/05/29 07:14:41;;;;;;;7.45;2.58;;;15.10;99.90;;;;;;5074213;28;20639;-77
2022/05/29 07:17:07;;;;;;;5.93;2.50;;;15.50;99.90;;;;;;5073089;28;20179;-77
2022/05/29 07:19:34;;;;;;;5.80;2.17;;;15.80;99.90;;;;;;5072562;28;20183;-77
2022/05/29 07:22:00;;;;;;;5.72;2.00;;;15.90;99.90;;;;;;5072898;28;20256;-76
2022/05/29 07:24:27;;;;;;;7.35;2.20;;;15.70;99.90;;;;;;5114483;22;20762;-72
2022/05/29 07:26:53;;;;;;;5.63;2.40;;;15.60;99.90;;;;;;5096115;28;20209;-72
2022/05/29 07:29:20;;;;;;;6.20;2.53;;;15.30;99.90;;;;;;5095671;28;20611;-73
2022/05/29 07:31:46;;;;;;;8.60;1.88;;;15.50;99.90;;;;;;5115230;28;20370;-72
2022/05/29 07:34:12;;;;;;;5.80;1.98;;;15.50;99.90;;;;;;5088967;28;20285;-73
2022/05/29 07:36:38;;;;;;;4.25;2.05;;;15.60;99.90;;;;;;5093885;28;20209;-74
2022/05/29 07:39:04;;;;;;;8.18;2.33;;;15.80;99.90;;;;;;5091178;28;20198;-73
2022/05/29 07:44:14;;;;;;;4.65;2.17;;;15.80;99.90;;;;;;5094122;28;20403;-72
2022/05/29 07:46:39;;;;;;;6.68;2.05;;;15.80;99.90;;;;;;5076125;28;20166;-72
2022/05/29 07:49:06;;;;;;;4.28;2.05;;;15.70;99.90;;;;;;5074798;28;20545;-72
2022/05/29 07:51:32;;;;;;;4.13;1.92;;;15.40;99.90;;;;;;5075326;28;20218;-73
2022/05/29 07:53:58;;;;;;;4.75;2.60;;;15.10;99.90;;;;;;5074668;28;20629;-72
2022/05/29 07:56:25;;;;;;;5.82;2.50;;;14.80;99.90;;;;;;5074974;28;20623;-72
2022/05/29 07:58:50;;;;;;;6.10;2.28;;;14.60;99.90;;;;;;5093484;28;20177;-72
2022/05/29 08:01:16;;;;;;;9.02;2.42;;;14.60;99.90;;;;;;5075337;28;20190;-73
2022/05/29 08:03:42;;;;;;;3.83;2.10;;;14.60;99.90;;;;;;5093357;28;20202;-73
2022/05/29 08:06:07;;;;;;;8.43;2.58;;;14.80;99.90;;;;;;5075359;28;20202;-73
2022/05/29 08:08:33;;;;;;;7.68;2.40;;;15.10;99.90;;;;;;5072293;28;20208;-73
2022/05/29 08:10:59;;;;;;;5.57;2.20;;;15.20;99.90;;;;;;5093162;28;20246;-73
2022/05/29 08:13:25;;;;;;;4.05;2.00;;;15.40;99.90;;;;;;5075360;28;20290;-73
2022/05/29 08:15:51;;;;;;;4.05;2.05;;;15.30;99.90;;;;;;5093329;28;20229;-73
2022/05/29 08:18:17;;;;;;;4.38;2.00;;;15.20;99.90;;;;;;5092678;28;20565;-73
2022/05/29 08:20:42;;;;;;;4.70;2.10;;;15.10;99.90;;;;;;5074784;28;20198;-73
2022/05/29 08:23:08;;;;;;;4.20;2.15;;;15.40;99.90;;;;;;5074807;28;20209;-73
2022/05/29 08:31:03;;;;;;;4.38;1.73;;;16.80;99.90;;;;;;5093159;28;20251;-74
2022/05/29 08:33:30;;;;;;;3.97;1.95;;;17.80;99.90;;;;;;5092546;28;20210;-74
2022/05/29 08:36:07;;;;;;;5.22;2.05;;;18.00;99.90;;;;;;5074509;28;20217;-74
2022/05/29 08:38:35;;;;;;;3.83;1.58;;;18.70;99.90;;;;;;5071816;28;20209;-74
2022/05/29 08:41:04;;;;;;;3.47;1.35;;;18.90;99.90;;;;;;5074614;28;20285;-74
2022/05/29 08:43:37;;;;;;;3.65;1.67;;;19.90;99.90;;;;;;5093114;28;20182;-74
2022/05/29 08:46:12;;;;;;;2.65;1.48;;;21.10;99.90;;;;;;5074357;28;20204;-74
2022/05/29 08:48:38;;;;;;;4.57;1.60;;;22.40;99.90;;;;;;5073489;28;20202;-74
2022/05/29 08:51:41;;;;;;;6.45;1.45;;;22.90;99.90;;;;;;5074559;28;20725;-73
2022/05/29 08:54:14;;;;;;;4.30;1.70;;;20.70;99.90;;;;;;5074070;28;20542;-73
2022/05/29 08:57:10;;;;;;;3.58;1.65;;;20.60;99.90;;;;;;5073980;28;20242;-72
2022/05/29 08:59:56;;;;;;;6.30;2.90;;;19.30;99.90;;;;;;5091551;28;20678;-73
2022/05/29 09:02:41;;;;;;;5.38;1.80;;;18.80;99.90;;;;;;5092113;28;20293;-73
2022/05/29 09:05:11;;;;;;;3.30;1.77;;;17.90;99.90;;;;;;5074202;28;20159;-73
2022/05/29 09:07:39;;;;;;;3.83;1.85;;;17.20;99.90;;;;;;5072491;28;20167;-73
2022/05/29 09:10:19;;;;;;;6.90;2.05;;;16.60;99.90;;;;;;5073416;28;20202;-73
2022/05/29 09:12:50;;;;;;;4.75;2.08;;;16.10;99.90;;;;;;5091751;28;20672;-73
2022/05/29 09:15:38;;;;;;;4.18;2.03;;;15.90;99.90;;;;;;5073803;28;20198;-73
2022/05/29 09:18:14;;;;;;;4.05;2.03;;;15.90;99.90;;;;;;5073269;28;20191;-73
2022/05/29 09:20:56;;;;;;;6.35;2.33;;;16.00;99.90;;;;;;5073695;28;20209;-73
2022/05/29 09:23:31;;;;;;;5.25;2.20;;;16.40;99.90;;;;;;5073499;28;20217;-73
2022/05/29 09:25:57;;;;;;;5.45;2.05;;;17.80;99.90;;;;;;5073850;28;20177;-74
2022/05/29 09:28:32;;;;;;;5.72;1.90;;;18.50;99.90;;;;;;5091629;28;20218;-74
2022/05/29 09:31:13;;;;;;;10.35;2.72;;;19.40;99.90;;;;;;5092002;28;20581;-74
2022/05/29 09:33:39;;;;;;;5.78;1.83;;;19.40;99.90;;;;;;5091877;28;20210;-73
2022/05/29 09:36:29;;;;;;;3.58;1.40;;;19.10;99.90;;;;;;5091630;28;20252;-74
2022/05/29 09:39:20;;;;;;;5.05;2.10;;;18.90;99.90;;;;;;5070575;28;20202;-74
2022/05/29 09:42:24;;;;;;;5.97;1.95;;;18.30;99.90;;;;;;5100220;28;20736;-74
2022/05/29 09:45:26;;;;;;;5.82;2.03;;;17.70;99.90;;;;;;5073303;28;20221;-74
2022/05/29 09:50:51;;;;;;;4.28;1.55;;;15.90;99.90;;;;;;5091640;28;20259;-73
2022/05/29 09:53:23;;;;;;;5.72;2.25;;;15.70;99.90;;;;;;5073285;28;20275;-74
2022/05/29 09:55:57;;;;;;;5.13;2.13;;;15.50;99.90;;;;;;5074454;28;20174;-73
2022/05/29 09:58:30;;;;;;;7.70;2.30;;;15.50;99.90;;;;;;5092153;28;20209;-73
2022/05/29 10:01:01;;;;;;;3.17;2.28;;;15.40;99.90;;;;;;5078796;28;20221;-73
2022/05/29 10:03:48;;;;;;;5.53;2.08;;;15.50;99.90;;;;;;5078706;28;20205;-73
2022/05/29 10:06:34;;;;;;;3.53;2.00;;;15.50;99.90;;;;;;5076448;28;20206;-73
2022/05/29 10:09:23;;;;;;;5.97;2.33;;;15.60;99.90;;;;;;5074067;28;20202;-73
2022/05/29 10:11:50;;;;;;;3.70;2.00;;;15.90;99.90;;;;;;5077888;28;20627;-74
2022/05/29 10:14:34;;;;;;;2.17;1.30;;;16.20;99.90;;;;;;5077444;28;20271;-74
2022/05/29 10:17:00;;;;;;;2.15;1.15;;;16.30;99.90;;;;;;5072953;28;20163;-73
2022/05/29 10:19:38;;;;;;;1.92;0.90;;;16.60;99.90;;;;;;5090762;28;20249;-73
2022/05/29 10:22:23;;;;;;;2.97;1.15;;;16.90;99.90;;;;;;5072769;28;20233;-73
2022/05/29 10:24:48;;;;;;;2.92;1.20;;;17.20;99.90;;;;;;5090679;28;20747;-73
2022/05/29 10:27:33;;;;;;;2.15;1.15;;;17.30;99.90;;;;;;5091051;28;20202;-73
2022/05/29 10:30:09;;;;;;;1.40;1.20;;;17.30;99.90;;;;;;5072067;28;20205;-73
2022/05/29 10:32:37;;;;;;;2.78;1.13;;;17.10;99.90;;;;;;5072509;28;20217;-74
2022/05/29 10:35:22;;;;;;;2.25;1.00;;;17.00;99.90;;;;;;5090922;28;20170;-73
2022/05/29 10:37:48;;;;;;;3.35;1.65;;;17.00;99.90;;;;;;5089065;28;20590;-73
2022/05/29 10:40:31;;;;;;;2.25;1.35;;;17.20;99.90;;;;;;5072345;28;20208;-73
2022/05/29 10:43:00;;;;;;;4.60;2.10;;;17.60;99.90;;;;;;5072561;28;20206;-73
2022/05/29 10:45:40;;;;;;;2.42;1.00;;;17.80;99.90;;;;;;5072843;28;20224;-73
2022/05/29 10:48:15;;;;;;;2.70;1.38;;;17.60;99.90;;;;;;5071681;28;20194;-73
2022/05/29 10:51:19;;;;;;;3.33;0.93;;;17.70;99.90;;;;;;5090613;28;20214;-74
2022/05/29 10:54:16;;;;;;;1.90;1.20;;;17.90;99.90;;;;;;5090431;28;20206;-73
2022/05/29 10:57:20;;;;;;;1.70;0.90;;;18.50;99.90;;;;;;5072561;28;20206;-74
2022/05/29 10:59:57;;;;;;;2.17;1.08;;;19.00;99.90;;;;;;5089808;28;20326;-74
2022/05/29 11:06:01;;;;;;;5.10;1.42;;;18.80;99.90;;;;;;5090689;28;20204;-74
2022/05/29 11:08:51;;;;;;;1.65;1.33;;;18.70;99.90;;;;;;5069611;28;20197;-73
2022/05/29 11:11:39;;;;;;;2.80;1.98;;;18.10;99.90;;;;;;5072323;28;20266;-74
2022/05/29 11:14:19;;;;;;;3.17;1.63;;;18.20;99.90;;;;;;5072277;28;20222;-74
2022/05/29 11:17:06;;;;;;;5.70;3.05;;;17.90;99.90;;;;;;5091370;28;20536;-74
2022/05/29 11:19:50;;;;;;;4.55;2.40;;;17.60;99.90;;;;;;5072052;28;20315;-73
2022/05/29 11:22:44;;;;;;;3.70;1.70;;;17.20;99.90;;;;;;5072275;28;20217;-74
2022/05/29 11:25:22;;;;;;;4.57;2.03;;;17.00;99.90;;;;;;5072234;28;20222;-73
2022/05/29 11:28:09;;;;;;;4.13;2.22;;;16.40;99.90;;;;;;5072111;28;20690;-73
2022/05/29 11:31:08;;;;;;;4.97;2.13;;;15.90;99.90;;;;;;5074090;28;20263;-73
2022/05/29 11:34:12;;;;;;;4.28;1.83;;;15.80;99.90;;;;;;5093697;28;20698;-73
2022/05/29 11:37:22;;;;;;;3.05;2.20;;;15.50;99.90;;;;;;5075529;28;20214;-73
2022/05/29 11:39:59;;;;;;;4.95;2.03;;;15.50;99.90;;;;;;5075030;28;20206;-73
2022/05/29 11:42:31;;;;;;;4.00;2.60;;;15.40;99.90;;;;;;5075688;28;20206;-72
2022/05/29 11:45:18;;;;;;;5.88;2.65;;;15.40;99.90;;;;;;5093709;28;20209;-73
2022/05/29 11:51:08;;;;;;;3.83;1.88;;;15.40;99.90;;;;;;5093882;28;20251;-73
2022/05/29 11:53:51;;;;;;;3.35;2.05;;;15.80;99.90;;;;;;5093498;28;20226;-73
2022/05/29 11:56:30;;;;;;;7.78;2.05;;;16.00;99.90;;;;;;5075529;28;20283;-72
2022/05/29 11:59:10;;;;;;;3.25;2.20;;;16.00;99.90;;;;;;5075335;28;20193;-72
2022/05/29 12:01:42;;;;;;;2.53;1.40;;;16.70;99.90;;;;;;5075973;28;20217;-73
2022/05/29 12:04:22;;;;;;;4.68;1.40;;;16.90;99.90;;;;;;5093349;28;20210;-73
2022/05/29 12:06:56;;;;;;;2.30;1.40;;;17.30;99.90;;;;;;5075469;28;20700;-72
2022/05/29 12:09:48;;;;;;;3.28;2.00;;;17.40;99.90;;;;;;5090720;28;20247;-72
2022/05/29 12:12:23;;;;;;;2.65;1.83;;;16.90;99.90;;;;;;5075244;28;20340;-73
2022/05/29 12:14:56;;;;;;;3.63;1.83;;;17.20;99.90;;;;;;5075241;28;20285;-74
2022/05/29 12:17:57;;;;;;;3.72;1.65;;;17.40;99.90;;;;;;5093109;28;20674;-73
2022/05/29 12:20:34;;;;;;;2.35;1.92;;;17.40;99.90;;;;;;5093000;28;20213;-73
2022/05/29 12:23:04;;;;;;;2.92;1.60;;;17.70;99.90;;;;;;5093190;28;20194;-72
2022/05/29 12:25:43;;;;;;;4.03;2.40;;;17.80;99.90;;;;;;5075303;28;20179;-72
2022/05/29 12:28:53;;;;;;;4.18;2.45;;;17.50;99.90;;;;;;5092507;28;20202;-72
2022/05/29 12:31:39;;;;;;;3.83;1.73;;;17.70;99.90;;;;;;5089166;28;20198;-73
2022/05/29 12:34:06;;;;;;;3.80;1.77;;;17.80;99.90;;;;;;5092912;28;20198;-73
2022/05/29 12:36:59;;;;;;;5.07;1.83;;;17.90;99.90;;;;;;5074789;28;20297;-73
2022/05/29 12:39:59;;;;;;;3.53;1.80;;;18.10;99.90;;;;;;5089856;28;20199;-72
2022/05/29 12:42:54;;;;;;;2.78;1.60;;;17.80;99.90;;;;;;5074319;28;20212;-73
2022/05/29 12:45:36;;;;;;;1.63;1.25;;;17.90;99.90;;;;;;5093105;28;20734;-72
2022/05/29 12:48:47;;;;;;;2.80;1.35;;;17.70;99.90;;;;;;5074008;28;20263;-73
2022/05/29 12:51:15;;;;;;;2.53;1.50;;;17.30;99.90;;;;;;5074536;28;20270;-72
2022/05/29 12:54:08;;;;;;;2.53;1.70;;;17.30;99.90;;;;;;5092451;28;20210;-72
2022/05/29 12:56:39;;;;;;;3.40;1.60;;;17.10;99.90;;;;;;5074087;28;20214;-73
2022/05/29 12:59:49;;;;;;;2.30;1.40;;;16.70;99.90;;;;;;5073780;28;20170;-72
2022/05/29 13:02:14;;;;;;;2.92;1.38;;;16.10;99.90;;;;;;5009515;28;20164;-72
2022/05/29 13:05:08;;;;;;;4.32;1.45;;;15.90;99.90;;;;;;5014478;28;20691;-73
2022/05/29 13:07:59;;;;;;;2.08;1.10;;;15.80;99.90;;;;;;5054855;28;20207;-72
2022/05/29 13:10:33;;;;;;;2.95;1.20;;;15.80;99.90;;;;;;5074499;28;20214;-72
2022/05/29 13:13:20;;;;;;;1.90;1.48;;;15.60;99.90;;;;;;5092331;28;20214;-74
2022/05/29 13:15:47;;;;;;;2.03;1.40;;;15.50;99.90;;;;;;5074167;28;20297;-72
2022/05/29 13:18:38;;;;;;;2.25;1.10;;;15.60;99.90;;;;;;5091420;28;20552;-73
2022/05/29 13:21:08;;;;;;;1.42;0.98;;;15.40;99.90;;;;;;5091997;28;20559;-73
2022/05/29 13:23:54;;;;;;;1.17;0.80;;;15.40;99.90;;;;;;5093179;28;20225;-73
2022/05/29 13:26:23;;;;;;;1.70;0.85;;;15.40;99.90;;;;;;5074041;28;20213;-72
2022/05/29 13:28:56;;;;;;;2.22;1.05;;;15.50;99.90;;;;;;5066256;28;20593;-73
2022/05/29 13:31:23;;;;;;;3.38;1.80;;;15.50;99.90;;;;;;5074305;28;20194;-73
2022/05/29 13:33:56;;;;;;;2.33;1.50;;;15.70;99.90;;;;;;5086657;28;20308;-73
2022/05/29 13:36:43;;;;;;;2.80;1.60;;;15.80;99.90;;;;;;5086248;28;20201;-72
2022/05/29 13:39:21;;;;;;;2.75;1.67;;;15.80;99.90;;;;;;5071453;28;20194;-74
2022/05/29 13:41:57;;;;;;;2.85;1.50;;;15.90;99.90;;;;;;5092535;28;20213;-73
2022/05/29 13:44:36;;;;;;;3.08;1.33;;;16.00;99.90;;;;;;5100948;28;20237;-73
2022/05/29 13:47:51;;;;;;;2.97;1.42;;;15.90;99.90;;;;;;5079884;28;20166;-72
2022/05/29 13:50:39;;;;;;;2.25;1.27;;;16.10;99.90;;;;;;5082200;28;20212;-73
2022/05/29 13:53:12;;;;;;;2.22;0.90;;;16.20;99.90;;;;;;5069081;28;20293;-73